Time;durP1;ratioP1;P1;durP2;ratioP2;P2;SDS_P1;SDS_P2;PMS_P1;PMS_P2;Temp;Humidity;BMP_temperature;BMP_pressure;BME280_temperature;BME280_humidity;BME280_pressure;Samples;Min_cycle;Max_cycle;Signal;HPM_P1;HPM_P2
2022/07/13 00:01:32;;;;;;;1.73;1.60;;;17.90;57.10;;;;;;610176;236;26636;-64
2022/07/13 00:04:00;;;;;;;2.37;1.60;;;17.90;57.10;;;;;;609971;235;26668;-64
2022/07/13 00:06:28;;;;;;;1.60;1.50;;;17.90;57.10;;;;;;609849;235;26585;-64
2022/07/13 00:08:55;;;;;;;1.62;1.52;;;17.90;57.10;;;;;;609867;235;26587;-64
2022/07/13 00:11:22;;;;;;;1.50;1.40;;;17.80;57.10;;;;;;609894;235;26618;-64
2022/07/13 00:13:49;;;;;;;1.75;1.60;;;17.80;57.30;;;;;;609855;235;27238;-64
2022/07/13 00:16:16;;;;;;;1.60;1.50;;;17.70;57.90;;;;;;609843;235;26587;-65
2022/07/13 00:18:44;;;;;;;1.60;1.50;;;17.70;57.80;;;;;;609847;235;26822;-64
2022/07/13 00:21:11;;;;;;;1.83;1.70;;;17.70;57.90;;;;;;609853;234;26611;-65
2022/07/13 00:23:38;;;;;;;1.62;1.52;;;17.80;57.80;;;;;;609905;235;26823;-65
2022/07/13 00:26:06;;;;;;;2.03;1.77;;;17.80;57.80;;;;;;609891;236;26618;-65
2022/07/13 00:28:33;;;;;;;3.87;1.67;;;17.80;57.80;;;;;;609907;235;26811;-64
2022/07/13 00:31:00;;;;;;;1.58;1.48;;;17.80;57.90;;;;;;609867;236;26604;-65
2022/07/13 00:33:27;;;;;;;1.40;1.30;;;17.90;57.70;;;;;;609899;235;26830;-64
2022/07/13 00:35:54;;;;;;;8.00;1.90;;;18.00;57.70;;;;;;609896;235;26609;-64
2022/07/13 00:38:22;;;;;;;3.45;1.73;;;18.00;57.60;;;;;;610287;233;27139;-64
2022/07/13 00:40:49;;;;;;;1.67;1.50;;;18.00;57.60;;;;;;611371;235;26617;-64
2022/07/13 00:43:16;;;;;;;1.87;1.50;;;18.00;57.70;;;;;;610964;235;26877;-64
2022/07/13 00:45:43;;;;;;;2.80;1.55;;;18.10;57.60;;;;;;610724;230;26561;-64
2022/07/13 00:48:10;;;;;;;2.75;1.70;;;18.10;57.30;;;;;;610545;235;26810;-64
2022/07/13 00:50:38;;;;;;;2.45;1.42;;;18.10;57.70;;;;;;610428;236;26609;-64
2022/07/13 00:53:05;;;;;;;1.25;1.15;;;18.10;57.30;;;;;;610468;235;26886;-64
2022/07/13 00:55:32;;;;;;;1.35;1.15;;;18.10;57.30;;;;;;610450;235;26567;-64
2022/07/13 00:57:59;;;;;;;3.90;1.40;;;18.10;57.30;;;;;;610159;235;26850;-64
2022/07/13 01:00:27;;;;;;;1.48;1.37;;;18.20;57.30;;;;;;610159;236;26639;-64
2022/07/13 01:02:55;;;;;;;1.87;1.55;;;18.20;57.10;;;;;;610179;236;26632;-64
2022/07/13 01:05:23;;;;;;;1.33;1.30;;;18.20;57.00;;;;;;610126;236;26651;-64
2022/07/13 01:07:51;;;;;;;2.50;1.62;;;18.20;57.00;;;;;;610146;236;26656;-64
2022/07/13 01:10:19;;;;;;;1.60;1.42;;;18.20;57.00;;;;;;610202;236;26664;-64
2022/07/13 01:12:46;;;;;;;1.45;1.23;;;18.20;57.50;;;;;;610186;236;26866;-64
2022/07/13 01:15:13;;;;;;;2.95;1.40;;;18.20;57.40;;;;;;609983;235;26577;-64
2022/07/13 01:17:41;;;;;;;1.60;1.50;;;18.20;57.50;;;;;;609902;235;26943;-65
2022/07/13 01:20:08;;;;;;;1.50;1.40;;;18.20;57.50;;;;;;609802;236;26600;-65
2022/07/13 01:22:42;;;;;;;1.50;1.20;;;18.20;57.50;;;;;;609826;235;27297;-64
2022/07/13 01:25:09;;;;;;;1.37;1.30;;;18.30;57.60;;;;;;609843;236;26633;-64
2022/07/13 01:27:37;;;;;;;2.00;1.52;;;18.30;57.70;;;;;;609855;236;26592;-65
2022/07/13 01:30:04;;;;;;;1.20;1.10;;;18.30;57.60;;;;;;609831;235;26835;-64
2022/07/13 01:32:42;;;;;;;1.20;1.20;;;18.40;57.50;;;;;;609799;236;26585;-64
2022/07/13 01:35:09;;;;;;;1.55;1.12;;;18.40;57.50;;;;;;610238;235;26553;-64
2022/07/13 01:37:37;;;;;;;1.15;1.12;;;18.40;57.60;;;;;;610219;235;26595;-64
2022/07/13 01:40:05;;;;;;;1.50;1.30;;;18.40;57.60;;;;;;610070;236;26569;-64
2022/07/13 01:42:32;;;;;;;1.50;1.40;;;18.50;57.60;;;;;;610255;236;26557;-64
2022/07/13 01:44:59;;;;;;;2.25;1.92;;;18.40;57.70;;;;;;610227;236;26557;-64
2022/07/13 01:47:27;;;;;;;1.30;1.20;;;18.50;57.80;;;;;;610218;235;26545;-64
2022/07/13 01:49:54;;;;;;;1.98;1.30;;;18.40;57.80;;;;;;610677;233;26558;-64
2022/07/13 01:52:21;;;;;;;1.37;1.20;;;18.50;57.90;;;;;;611698;234;26942;-64
2022/07/13 01:54:48;;;;;;;1.52;1.42;;;18.50;58.00;;;;;;611208;235;26619;-64
2022/07/13 01:57:16;;;;;;;5.40;1.42;;;18.50;58.10;;;;;;610535;235;27138;-64
2022/07/13 01:59:43;;;;;;;1.40;1.33;;;18.50;58.10;;;;;;610593;235;26584;-64
2022/07/13 02:02:10;;;;;;;1.60;1.50;;;18.50;58.10;;;;;;610401;235;26862;-63
2022/07/13 02:04:38;;;;;;;1.40;1.30;;;18.60;58.30;;;;;;610448;236;26580;-64
2022/07/13 02:07:06;;;;;;;1.35;1.25;;;18.60;58.40;;;;;;610418;235;26585;-63
2022/07/13 02:09:34;;;;;;;1.55;1.30;;;18.60;58.40;;;;;;610201;236;26621;-64
2022/07/13 02:12:02;;;;;;;1.83;1.25;;;18.60;58.40;;;;;;610119;236;26657;-64
2022/07/13 02:14:29;;;;;;;1.58;1.25;;;18.50;58.40;;;;;;610193;236;26617;-64
2022/07/13 02:16:56;;;;;;;1.20;1.20;;;18.50;58.60;;;;;;610215;235;26878;-64
2022/07/13 02:19:23;;;;;;;2.45;1.50;;;18.50;58.60;;;;;;610095;236;26593;-64
2022/07/13 02:21:51;;;;;;;1.55;1.30;;;18.50;58.70;;;;;;610118;235;26886;-64
2022/07/13 02:24:19;;;;;;;1.02;1.02;;;18.50;58.90;;;;;;610162;235;26629;-64
2022/07/13 02:26:47;;;;;;;1.42;1.33;;;18.50;59.00;;;;;;609931;236;26561;-64
2022/07/13 02:29:15;;;;;;;1.15;1.12;;;18.50;59.10;;;;;;609830;235;26592;-64
2022/07/13 02:31:42;;;;;;;2.35;1.27;;;18.50;59.20;;;;;;609862;235;26678;-64
2022/07/13 02:34:10;;;;;;;2.60;1.40;;;18.50;59.20;;;;;;609804;236;26558;-64
2022/07/13 02:36:37;;;;;;;1.40;1.30;;;18.60;59.30;;;;;;609860;235;26623;-64
2022/07/13 02:39:04;;;;;;;1.10;1.10;;;18.60;59.30;;;;;;609815;235;26783;-64
2022/07/13 02:41:31;;;;;;;2.47;1.40;;;18.60;59.50;;;;;;609896;235;26597;-64
2022/07/13 02:43:58;;;;;;;1.95;1.37;;;18.60;59.50;;;;;;609898;236;26832;-64
2022/07/13 02:46:26;;;;;;;1.40;1.30;;;18.60;59.60;;;;;;609731;236;26649;-64
2022/07/13 02:48:53;;;;;;;1.20;1.10;;;18.60;59.70;;;;;;609613;235;26962;-64
2022/07/13 02:51:20;;;;;;;1.50;1.40;;;18.60;60.00;;;;;;609721;235;26651;-64
2022/07/13 02:53:47;;;;;;;2.80;1.20;;;18.60;60.20;;;;;;609687;235;26832;-64
2022/07/13 02:56:14;;;;;;;4.87;1.25;;;18.60;60.40;;;;;;609824;236;26581;-64
2022/07/13 02:58:42;;;;;;;1.42;1.30;;;18.60;60.50;;;;;;609805;235;26628;-64
2022/07/13 03:01:10;;;;;;;1.30;1.20;;;18.60;60.80;;;;;;609924;233;26608;-64
2022/07/13 03:03:38;;;;;;;3.53;1.33;;;18.50;61.20;;;;;;611456;235;26628;-64
2022/07/13 03:06:06;;;;;;;1.00;1.00;;;18.50;61.60;;;;;;610891;235;26633;-64
2022/07/13 03:08:34;;;;;;;1.83;1.30;;;18.50;61.90;;;;;;610726;235;26577;-65
2022/07/13 03:11:01;;;;;;;1.23;1.10;;;18.50;61.90;;;;;;610549;235;26635;-65
2022/07/13 03:13:29;;;;;;;2.15;1.20;;;18.50;62.20;;;;;;610454;235;26592;-65
2022/07/13 03:15:56;;;;;;;1.12;1.12;;;18.50;62.20;;;;;;610429;236;26584;-65
2022/07/13 03:18:24;;;;;;;1.40;1.30;;;18.50;62.50;;;;;;610429;236;26596;-65
2022/07/13 03:20:52;;;;;;;1.60;1.50;;;18.50;62.50;;;;;;610192;234;26691;-64
2022/07/13 03:23:19;;;;;;;2.83;1.30;;;18.50;62.60;;;;;;610232;235;26625;-65
2022/07/13 03:25:47;;;;;;;0.90;0.90;;;18.40;62.40;;;;;;610213;235;26628;-65
2022/07/13 03:28:14;;;;;;;1.00;1.00;;;18.40;62.40;;;;;;610171;236;26632;-65
2022/07/13 03:30:41;;;;;;;1.20;1.12;;;18.50;62.60;;;;;;610131;235;26971;-65
2022/07/13 03:33:09;;;;;;;1.05;0.93;;;18.50;63.60;;;;;;610195;236;26645;-65
2022/07/13 03:35:36;;;;;;;1.75;1.20;;;18.50;63.30;;;;;;610204;236;26945;-65
2022/07/13 03:38:04;;;;;;;1.05;1.02;;;18.50;63.30;;;;;;609952;236;26803;-65
2022/07/13 03:40:31;;;;;;;1.25;1.15;;;18.50;63.50;;;;;;609856;235;26651;-65
2022/07/13 03:42:58;;;;;;;2.15;1.25;;;18.50;64.00;;;;;;609891;232;26834;-65
2022/07/13 03:45:25;;;;;;;1.00;1.00;;;18.50;64.10;;;;;;609895;236;26595;-65
2022/07/13 03:47:53;;;;;;;1.27;1.20;;;18.50;64.20;;;;;;609756;235;26573;-65
2022/07/13 03:50:20;;;;;;;1.75;1.02;;;18.50;64.50;;;;;;609856;235;26810;-64
2022/07/13 03:52:47;;;;;;;1.20;1.20;;;18.60;64.90;;;;;;609930;235;26648;-65
2022/07/13 03:55:14;;;;;;;1.23;1.12;;;18.70;64.80;;;;;;609898;235;26822;-65
2022/07/13 03:57:41;;;;;;;1.90;1.30;;;18.70;64.80;;;;;;609852;235;26580;-65
2022/07/13 04:00:09;;;;;;;1.27;1.17;;;18.70;64.60;;;;;;609898;236;26827;-65
2022/07/13 04:02:36;;;;;;;1.17;1.10;;;18.70;64.50;;;;;;609904;236;26589;-65
2022/07/13 04:05:04;;;;;;;1.20;1.20;;;18.80;64.80;;;;;;609888;236;26833;-65
2022/07/13 04:07:31;;;;;;;1.15;1.10;;;18.80;64.60;;;;;;610236;236;26585;-65
2022/07/13 04:09:58;;;;;;;1.02;1.00;;;18.80;64.40;;;;;;610236;236;26808;-65
2022/07/13 04:12:26;;;;;;;1.85;1.05;;;18.90;64.60;;;;;;609951;236;26603;-65
2022/07/13 04:14:53;;;;;;;1.48;1.23;;;18.90;64.20;;;;;;611442;233;26881;-65
2022/07/13 04:17:20;;;;;;;1.75;0.90;;;18.90;64.30;;;;;;611008;235;26575;-64
2022/07/13 04:19:47;;;;;;;1.23;1.10;;;19.00;64.10;;;;;;610782;235;27131;-65
2022/07/13 04:22:14;;;;;;;1.27;1.27;;;19.00;64.20;;;;;;610702;234;26607;-65
2022/07/13 04:24:42;;;;;;;1.30;1.20;;;19.00;63.80;;;;;;610473;235;26585;-65
2022/07/13 04:27:10;;;;;;;2.37;1.37;;;19.10;64.50;;;;;;610471;236;26591;-65
2022/07/13 04:29:38;;;;;;;1.23;1.23;;;19.20;64.20;;;;;;610476;235;26610;-65
2022/07/13 04:32:06;;;;;;;1.40;1.15;;;19.20;64.10;;;;;;610233;235;26651;-65
2022/07/13 04:34:33;;;;;;;1.65;1.00;;;19.20;64.10;;;;;;610230;236;26663;-65
2022/07/13 04:37:01;;;;;;;1.15;1.10;;;19.20;64.30;;;;;;610216;236;26810;-64
2022/07/13 04:39:28;;;;;;;1.30;0.93;;;19.30;63.70;;;;;;610124;235;26639;-64
2022/07/13 04:41:55;;;;;;;2.60;1.30;;;19.30;64.00;;;;;;610081;235;26920;-64
2022/07/13 04:44:23;;;;;;;0.82;0.82;;;19.40;64.10;;;;;;610137;235;26629;-64
2022/07/13 04:46:49;;;;;;;1.50;1.17;;;19.40;64.00;;;;;;610079;236;26840;-64
2022/07/13 04:49:19;;;;;;;1.00;1.00;;;19.40;64.00;;;;;;610050;230;26655;-64
2022/07/13 04:51:44;;;;;;;0.90;0.90;;;19.50;63.70;;;;;;609765;236;26609;-64
2022/07/13 04:54:12;;;;;;;1.73;1.20;;;19.50;63.90;;;;;;609899;236;26591;-64
2022/07/13 04:56:40;;;;;;;1.05;1.05;;;19.60;63.90;;;;;;609858;235;26589;-64
2022/07/13 04:59:08;;;;;;;1.33;1.10;;;19.60;63.70;;;;;;609895;236;26626;-64
2022/07/13 05:01:36;;;;;;;1.23;1.08;;;19.70;63.80;;;;;;609913;235;26601;-64
2022/07/13 05:04:03;;;;;;;1.00;1.00;;;19.70;63.40;;;;;;609864;236;27277;-64
2022/07/13 05:06:30;;;;;;;0.95;0.95;;;19.80;63.30;;;;;;609852;235;26562;-64
2022/07/13 05:08:57;;;;;;;1.30;1.20;;;19.90;63.00;;;;;;609859;235;26834;-64
2022/07/13 05:11:25;;;;;;;1.30;1.30;;;20.00;63.00;;;;;;609842;235;26622;-64
2022/07/13 05:13:52;;;;;;;1.00;1.00;;;20.00;62.70;;;;;;609927;235;27313;-64
2022/07/13 05:16:19;;;;;;;5.78;1.15;;;20.00;62.80;;;;;;609848;235;26613;-64
2022/07/13 05:18:46;;;;;;;1.23;1.23;;;20.10;62.80;;;;;;609861;235;26864;-64
2022/07/13 05:21:14;;;;;;;1.10;1.10;;;20.10;63.00;;;;;;609845;235;26611;-64
2022/07/13 05:23:41;;;;;;;1.10;1.10;;;20.20;62.80;;;;;;609872;235;26838;-64
2022/07/13 05:26:08;;;;;;;1.08;1.08;;;20.40;62.50;;;;;;611260;233;26634;-64
2022/07/13 05:28:35;;;;;;;1.00;1.00;;;20.40;62.20;;;;;;611091;234;26565;-63
2022/07/13 05:31:03;;;;;;;0.88;0.88;;;20.50;61.60;;;;;;610708;235;26572;-64
2022/07/13 05:33:31;;;;;;;0.90;0.90;;;20.70;61.70;;;;;;610725;235;26587;-64
2022/07/13 05:35:59;;;;;;;1.73;1.10;;;20.70;61.50;;;;;;610470;236;26571;-64
2022/07/13 05:38:27;;;;;;;0.90;0.90;;;20.80;62.10;;;;;;610124;236;26593;-64
2022/07/13 05:40:54;;;;;;;2.15;1.20;;;20.70;61.40;;;;;;610437;235;26608;-64
2022/07/13 05:43:21;;;;;;;0.85;0.85;;;20.80;61.40;;;;;;610394;236;26599;-64
2022/07/13 05:45:48;;;;;;;0.93;0.90;;;20.80;61.40;;;;;;610154;236;26887;-64
2022/07/13 05:48:16;;;;;;;1.30;0.95;;;20.90;61.20;;;;;;610115;236;26665;-64
2022/07/13 05:50:44;;;;;;;1.10;1.00;;;20.90;61.00;;;;;;610115;236;26895;-65
2022/07/13 05:53:10;;;;;;;2.87;1.17;;;20.90;60.90;;;;;;610060;236;26627;-64
2022/07/13 05:55:37;;;;;;;0.73;0.73;;;20.90;60.90;;;;;;610174;236;27004;-64
2022/07/13 05:58:04;;;;;;;1.10;1.10;;;20.90;60.90;;;;;;610009;236;26654;-64
2022/07/13 06:00:32;;;;;;;1.20;1.10;;;21.00;60.80;;;;;;610008;235;26873;-64
2022/07/13 06:02:59;;;;;;;1.02;1.02;;;21.10;60.40;;;;;;609831;236;26581;-64
2022/07/13 06:05:26;;;;;;;0.98;0.95;;;21.30;60.70;;;;;;609836;236;26860;-64
2022/07/13 06:07:55;;;;;;;1.37;1.10;;;21.40;60.00;;;;;;609840;235;26573;-64
2022/07/13 06:10:20;;;;;;;1.45;1.05;;;21.60;59.70;;;;;;609768;236;26647;-64
2022/07/13 06:12:48;;;;;;;1.08;1.00;;;21.70;59.30;;;;;;609850;235;26561;-64
2022/07/13 06:15:16;;;;;;;1.50;1.23;;;21.80;59.10;;;;;;609799;235;26569;-65
2022/07/13 06:17:44;;;;;;;1.10;1.10;;;21.80;59.00;;;;;;609872;236;26575;-65
2022/07/13 06:20:12;;;;;;;1.08;1.08;;;21.80;59.00;;;;;;609860;236;26586;-65
2022/07/13 06:22:40;;;;;;;1.55;1.10;;;21.90;59.00;;;;;;609899;235;26837;-65
2022/07/13 06:25:08;;;;;;;1.20;1.20;;;21.90;58.80;;;;;;609871;230;26654;-65
2022/07/13 06:27:36;;;;;;;1.10;1.00;;;22.10;58.50;;;;;;610240;236;26561;-65
2022/07/13 06:30:04;;;;;;;1.00;1.00;;;22.40;58.00;;;;;;610246;235;26558;-65
2022/07/13 06:32:31;;;;;;;1.37;0.80;;;22.30;58.00;;;;;;610243;236;26560;-65
2022/07/13 06:34:58;;;;;;;1.15;1.10;;;22.50;57.90;;;;;;610253;235;26799;-64
2022/07/13 06:37:26;;;;;;;2.25;1.12;;;22.60;57.40;;;;;;611439;233;26567;-64
2022/07/13 06:39:54;;;;;;;1.42;1.10;;;22.70;57.50;;;;;;611112;234;26592;-64
2022/07/13 06:42:22;;;;;;;1.42;1.00;;;22.80;57.10;;;;;;610771;235;26622;-65
2022/07/13 06:44:50;;;;;;;0.80;0.80;;;22.70;57.00;;;;;;610741;235;26581;-65
2022/07/13 06:47:18;;;;;;;1.75;1.02;;;22.80;57.10;;;;;;610398;236;26602;-65
2022/07/13 06:49:45;;;;;;;1.30;1.12;;;22.80;57.00;;;;;;610381;236;26895;-65
2022/07/13 06:52:12;;;;;;;1.30;1.20;;;23.00;57.30;;;;;;610426;235;26576;-65
2022/07/13 06:54:40;;;;;;;1.30;1.20;;;23.10;56.70;;;;;;610283;235;26840;-65
2022/07/13 06:57:07;;;;;;;1.05;1.05;;;23.20;56.70;;;;;;610102;235;26664;-63
2022/07/13 06:59:35;;;;;;;0.98;0.95;;;23.50;56.10;;;;;;610104;236;26859;-63
2022/07/13 07:02:02;;;;;;;1.83;1.10;;;23.50;56.10;;;;;;610127;236;26891;-63
2022/07/13 07:04:29;;;;;;;1.50;1.00;;;23.60;56.10;;;;;;610146;236;26631;-64
2022/07/13 07:06:57;;;;;;;1.08;0.95;;;23.70;55.90;;;;;;610085;235;27302;-64
2022/07/13 07:09:24;;;;;;;2.67;1.15;;;23.80;56.00;;;;;;610116;236;26634;-65
2022/07/13 07:11:52;;;;;;;2.87;1.08;;;23.90;55.80;;;;;;610053;235;26872;-65
2022/07/13 07:14:19;;;;;;;1.42;1.33;;;24.00;55.70;;;;;;609859;236;26588;-64
2022/07/13 07:16:46;;;;;;;1.10;1.10;;;24.10;55.30;;;;;;609883;236;26589;-64
2022/07/13 07:19:13;;;;;;;2.75;0.88;;;24.10;55.30;;;;;;609870;235;26595;-65
2022/07/13 07:21:41;;;;;;;1.00;1.00;;;24.20;54.70;;;;;;609789;235;26883;-65
2022/07/13 07:24:08;;;;;;;1.00;1.00;;;24.40;55.00;;;;;;609876;235;26626;-64
2022/07/13 07:26:35;;;;;;;1.65;0.90;;;24.50;54.40;;;;;;609869;235;26958;-64
2022/07/13 07:29:02;;;;;;;2.70;1.55;;;24.60;54.20;;;;;;604689;235;26580;-65
2022/07/13 07:31:29;;;;;;;1.35;1.10;;;24.60;54.20;;;;;;603779;236;26892;-65
2022/07/13 07:33:57;;;;;;;1.33;1.20;;;24.60;54.10;;;;;;604079;236;26633;-65
2022/07/13 07:36:24;;;;;;;2.33;1.30;;;24.80;54.00;;;;;;606043;235;26889;-65
2022/07/13 07:38:51;;;;;;;1.70;1.05;;;25.00;53.70;;;;;;604626;236;26657;-65
2022/07/13 07:41:19;;;;;;;1.30;1.20;;;24.90;53.40;;;;;;605763;235;26673;-65
2022/07/13 07:43:48;;;;;;;1.30;1.20;;;25.20;53.40;;;;;;603982;236;26606;-65
2022/07/13 07:46:14;;;;;;;1.55;0.88;;;25.30;53.40;;;;;;603571;236;26862;-65
2022/07/13 07:48:41;;;;;;;1.85;1.50;;;25.40;53.20;;;;;;604886;235;26640;-65
2022/07/13 07:51:08;;;;;;;2.50;1.08;;;25.60;52.70;;;;;;604281;236;26879;-65
2022/07/13 07:53:37;;;;;;;0.90;0.90;;;25.70;52.50;;;;;;606089;234;26888;-65
2022/07/13 07:56:05;;;;;;;0.80;0.80;;;25.70;52.50;;;;;;608069;234;26827;-65
2022/07/13 07:58:33;;;;;;;3.87;1.40;;;25.80;52.10;;;;;;604086;234;26646;-65
2022/07/13 08:01:01;;;;;;;1.40;1.15;;;25.80;52.00;;;;;;603814;237;26649;-66
2022/07/13 08:03:29;;;;;;;1.30;1.20;;;25.90;51.80;;;;;;603194;236;26585;-65
2022/07/13 08:05:57;;;;;;;3.80;1.60;;;26.10;51.30;;;;;;610369;235;26579;-65
2022/07/13 08:08:24;;;;;;;1.12;1.12;;;26.10;51.30;;;;;;605875;236;26585;-65
2022/07/13 08:10:54;;;;;;;1.40;0.80;;;26.30;50.50;;;;;;601806;237;26628;-65
2022/07/13 08:13:20;;;;;;;1.27;1.20;;;26.40;50.40;;;;;;603470;237;26582;-65
2022/07/13 08:15:48;;;;;;;0.80;0.80;;;26.30;50.40;;;;;;604026;237;26611;-65
2022/07/13 08:18:15;;;;;;;0.93;0.93;;;26.50;50.00;;;;;;605527;236;26580;-65
2022/07/13 08:20:42;;;;;;;1.45;1.35;;;26.40;50.20;;;;;;604812;236;26858;-65
2022/07/13 08:25:52;;;;;;;1.95;1.23;;;26.60;48.90;;;;;;601987;236;26698;-65
2022/07/13 08:28:19;;;;;;;2.97;1.20;;;26.40;49.00;;;;;;605871;236;26877;-66
2022/07/13 08:30:46;;;;;;;1.12;1.00;;;26.30;49.10;;;;;;601542;239;26687;-65
2022/07/13 08:33:13;;;;;;;1.80;1.17;;;26.50;49.30;;;;;;604031;232;26784;-65
2022/07/13 08:40:46;;;;;;;1.50;1.20;;;26.60;49.20;;;;;;602515;237;27300;-65
2022/07/13 08:43:13;;;;;;;1.10;1.00;;;26.70;49.30;;;;;;604054;237;26585;-65
2022/07/13 08:45:41;;;;;;;1.27;1.00;;;27.00;48.80;;;;;;603909;237;26848;-65
2022/07/13 08:48:10;;;;;;;1.65;1.15;;;27.00;49.20;;;;;;602663;232;26609;-66
2022/07/13 08:50:37;;;;;;;0.70;0.70;;;27.30;48.20;;;;;;602835;232;26694;-65
2022/07/13 08:53:04;;;;;;;1.12;1.10;;;27.30;47.70;;;;;;603868;237;26589;-65
2022/07/13 08:55:31;;;;;;;1.25;1.15;;;27.50;47.40;;;;;;601430;233;26861;-65
2022/07/13 08:57:59;;;;;;;1.90;1.17;;;27.40;47.70;;;;;;604218;236;26657;-65
2022/07/13 09:00:26;;;;;;;1.10;1.00;;;27.40;47.40;;;;;;610926;233;26885;-65
2022/07/13 09:02:53;;;;;;;0.90;0.90;;;27.40;47.40;;;;;;611130;230;26592;-65
2022/07/13 09:05:20;;;;;;;0.77;0.77;;;27.70;47.40;;;;;;605777;235;26811;-65
2022/07/13 09:07:53;;;;;;;0.80;0.80;;;27.70;47.00;;;;;;604384;235;26629;-65
2022/07/13 09:10:22;;;;;;;0.60;0.60;;;27.80;47.20;;;;;;605812;236;26581;-65
2022/07/13 09:12:48;;;;;;;1.20;1.10;;;28.00;46.50;;;;;;604099;238;26872;-65
2022/07/13 09:15:15;;;;;;;1.05;1.00;;;28.00;46.30;;;;;;602575;237;26631;-65
2022/07/13 09:17:43;;;;;;;0.82;0.80;;;28.10;46.20;;;;;;604349;237;26854;-66
2022/07/13 09:20:21;;;;;;;2.50;1.05;;;28.20;46.10;;;;;;602120;235;26610;-67
2022/07/13 09:22:48;;;;;;;1.20;1.00;;;28.40;46.40;;;;;;602172;239;26800;-66
2022/07/13 09:25:26;;;;;;;50.65;10.15;;;28.40;46.20;;;;;;604696;237;26594;-66
2022/07/13 09:27:53;;;;;;;42.00;9.48;;;28.60;46.00;;;;;;603075;237;26554;-65
2022/07/13 09:30:21;;;;;;;66.05;14.18;;;28.80;45.60;;;;;;604673;238;26634;-66
2022/07/13 09:32:59;;;;;;;132.93;27.15;;;29.10;45.40;;;;;;604797;236;26587;-65
2022/07/13 09:35:38;;;;;;;87.93;19.48;;;29.00;45.30;;;;;;602097;235;26848;-65
2022/07/13 09:38:05;;;;;;;55.17;12.43;;;29.20;45.20;;;;;;602171;235;26641;-65
2022/07/13 09:40:32;;;;;;;40.78;10.90;;;29.10;44.70;;;;;;611146;235;27312;-65
2022/07/13 09:48:05;;;;;;;1.62;1.12;;;28.70;44.90;;;;;;605084;235;26656;-65
2022/07/13 09:53:25;;;;;;;1.83;1.05;;;29.00;44.50;;;;;;655943;217;27018;-69
2022/07/13 09:55:52;;;;;;;3.90;2.03;;;29.10;44.10;;;;;;653527;217;26725;-69
2022/07/13 09:58:23;;;;;;;1.05;1.05;;;29.60;44.70;;;;;;660559;217;26531;-70
2022/07/13 10:00:51;;;;;;;2.15;1.85;;;29.30;44.00;;;;;;651177;219;26539;-68
2022/07/13 10:03:18;;;;;;;3.72;1.60;;;29.20;44.00;;;;;;650007;219;26511;-62
2022/07/13 10:05:46;;;;;;;3.22;1.67;;;29.20;44.00;;;;;;650353;220;26546;-62
2022/07/13 10:08:13;;;;;;;1.33;1.23;;;29.10;44.30;;;;;;651516;215;26489;-62
2022/07/13 10:10:41;;;;;;;1.83;1.23;;;29.20;44.40;;;;;;648739;219;26489;-62
2022/07/13 10:13:09;;;;;;;1.37;1.25;;;29.30;44.30;;;;;;652572;215;26566;-63
2022/07/13 10:15:37;;;;;;;1.12;1.10;;;29.60;43.90;;;;;;651999;216;26553;-62
2022/07/13 10:18:05;;;;;;;1.12;1.10;;;29.40;44.00;;;;;;649359;219;26570;-63
2022/07/13 10:20:32;;;;;;;2.62;0.98;;;29.40;44.00;;;;;;648238;220;26836;-63
2022/07/13 10:22:59;;;;;;;1.50;1.40;;;29.40;43.90;;;;;;650643;220;26570;-62
2022/07/13 10:25:27;;;;;;;1.40;1.30;;;29.90;43.80;;;;;;650271;221;26747;-63
2022/07/13 10:28:02;;;;;;;1.15;1.15;;;29.80;43.70;;;;;;645477;220;26751;-63
2022/07/13 10:30:29;;;;;;;1.25;1.15;;;29.60;43.40;;;;;;646674;221;26717;-63
2022/07/13 10:32:56;;;;;;;1.90;1.20;;;29.70;44.30;;;;;;648148;220;26520;-63
2022/07/13 10:35:23;;;;;;;0.80;0.80;;;30.20;42.90;;;;;;648538;220;26739;-63
2022/07/13 10:38:14;;;;;;;1.35;0.80;;;29.50;42.20;;;;;;647906;219;26560;-64
2022/07/13 10:40:41;;;;;;;1.20;1.20;;;29.50;42.20;;;;;;648843;220;26500;-63
2022/07/13 10:43:09;;;;;;;1.10;1.00;;;29.70;42.30;;;;;;650589;220;26916;-63
2022/07/13 10:45:40;;;;;;;1.23;1.08;;;30.20;42.50;;;;;;648242;219;26491;-63
2022/07/13 10:48:11;;;;;;;1.08;1.08;;;30.70;41.70;;;;;;646647;220;26739;-63
2022/07/13 10:50:45;;;;;;;2.05;1.00;;;30.60;40.90;;;;;;648138;218;26492;-63
2022/07/13 10:53:15;;;;;;;1.73;1.30;;;30.60;41.10;;;;;;650987;219;26489;-63
2022/07/13 10:55:46;;;;;;;1.02;1.02;;;30.60;41.10;;;;;;649029;220;26482;-63
2022/07/13 10:58:23;;;;;;;0.98;0.98;;;30.60;41.10;;;;;;646089;222;26494;-63
2022/07/13 11:00:51;;;;;;;1.20;1.20;;;30.60;40.60;;;;;;645904;222;26725;-63
2022/07/13 11:03:24;;;;;;;1.35;1.20;;;30.20;39.70;;;;;;646125;222;26479;-63
2022/07/13 11:06:02;;;;;;;3.83;1.02;;;29.70;39.10;;;;;;645913;222;26969;-63
2022/07/13 11:08:30;;;;;;;0.95;0.95;;;29.50;37.80;;;;;;646215;222;26500;-63
2022/07/13 11:11:11;;;;;;;1.00;1.00;;;29.40;37.70;;;;;;646264;222;26517;-63
2022/07/13 11:13:39;;;;;;;1.27;1.00;;;29.40;37.70;;;;;;646372;222;26479;-64
2022/07/13 11:16:07;;;;;;;1.17;1.17;;;29.30;38.20;;;;;;646304;222;26742;-64
2022/07/13 11:18:36;;;;;;;1.30;1.30;;;29.10;40.20;;;;;;646341;222;26507;-64
2022/07/13 11:21:08;;;;;;;1.80;1.65;;;29.10;40.20;;;;;;646399;222;26526;-64
2022/07/13 11:26:07;;;;;;;1.42;1.33;;;29.40;40.00;;;;;;647786;222;26525;-64
2022/07/13 11:28:37;;;;;;;1.10;1.10;;;29.50;41.00;;;;;;646933;221;26536;-64
2022/07/13 11:31:04;;;;;;;1.55;1.23;;;29.40;40.50;;;;;;646982;222;26760;-64
2022/07/13 11:33:32;;;;;;;0.98;0.98;;;29.60;40.40;;;;;;647116;222;26565;-64
2022/07/13 11:36:00;;;;;;;3.00;1.27;;;29.50;40.60;;;;;;647137;221;26766;-64
2022/07/13 11:38:26;;;;;;;3.20;1.20;;;29.40;40.90;;;;;;647041;221;26540;-64
2022/07/13 11:40:53;;;;;;;2.05;1.48;;;29.20;41.30;;;;;;645706;217;26754;-64
2022/07/13 11:43:20;;;;;;;2.25;1.67;;;29.10;41.40;;;;;;646828;222;26486;-69
2022/07/13 11:45:48;;;;;;;1.42;1.33;;;29.00;41.30;;;;;;647715;220;26464;-66
2022/07/13 11:48:16;;;;;;;5.45;1.40;;;28.90;41.20;;;;;;649195;220;26530;-64
2022/07/13 11:50:46;;;;;;;2.45;1.20;;;29.30;41.30;;;;;;648036;221;26525;-65
2022/07/13 11:53:21;;;;;;;2.55;1.40;;;29.20;41.30;;;;;;649075;220;26549;-65
2022/07/13 11:55:48;;;;;;;2.97;1.30;;;29.60;41.50;;;;;;646856;220;26487;-65
2022/07/13 11:58:21;;;;;;;1.20;1.10;;;29.50;41.20;;;;;;650692;220;26478;-64
2022/07/13 12:00:48;;;;;;;1.23;1.02;;;29.40;41.20;;;;;;651131;220;26768;-64
2022/07/13 12:03:15;;;;;;;0.90;0.90;;;29.60;41.00;;;;;;650804;220;26504;-64
2022/07/13 12:05:44;;;;;;;1.20;1.10;;;29.90;41.00;;;;;;651244;220;26715;-64
2022/07/13 12:08:11;;;;;;;1.35;1.00;;;30.10;40.40;;;;;;650195;219;26540;-65
2022/07/13 12:10:39;;;;;;;1.30;1.30;;;29.90;40.50;;;;;;652392;219;26490;-64
2022/07/13 12:13:07;;;;;;;1.35;1.35;;;30.10;40.50;;;;;;649153;219;26482;-64
2022/07/13 12:15:35;;;;;;;1.65;1.10;;;30.20;40.70;;;;;;650927;220;26485;-65
2022/07/13 12:18:04;;;;;;;1.55;1.45;;;30.50;40.80;;;;;;647445;219;26479;-66
2022/07/13 12:20:31;;;;;;;1.90;0.93;;;30.50;40.60;;;;;;650997;220;26703;-65
2022/07/13 12:22:57;;;;;;;1.77;1.67;;;30.70;39.70;;;;;;647967;221;26484;-65
2022/07/13 12:25:28;;;;;;;1.55;1.20;;;31.00;39.20;;;;;;651530;220;26827;-64
2022/07/13 12:27:56;;;;;;;1.37;1.10;;;31.30;39.30;;;;;;647494;219;26478;-64
2022/07/13 12:30:23;;;;;;;1.70;1.08;;;31.70;38.90;;;;;;650796;220;26732;-66
2022/07/13 12:32:59;;;;;;;1.87;1.40;;;33.00;37.90;;;;;;648981;220;26508;-64
2022/07/13 12:35:26;;;;;;;1.17;1.10;;;33.00;37.90;;;;;;653518;218;26555;-63
2022/07/13 12:37:53;;;;;;;3.08;1.20;;;33.40;37.00;;;;;;648657;219;26770;-64
2022/07/13 12:40:47;;;;;;;1.23;1.20;;;33.40;36.10;;;;;;652258;219;26550;-66
2022/07/13 12:43:17;;;;;;;1.10;1.10;;;33.50;36.20;;;;;;647724;216;26550;-64
2022/07/13 12:45:48;;;;;;;1.80;1.40;;;33.00;36.40;;;;;;652080;220;26513;-63
2022/07/13 12:48:17;;;;;;;1.48;1.40;;;32.30;37.00;;;;;;640245;220;27216;-64
2022/07/13 12:50:59;;;;;;;1.48;1.35;;;32.00;37.20;;;;;;651955;216;26474;-64
2022/07/13 12:53:39;;;;;;;1.42;1.20;;;31.00;35.80;;;;;;650926;220;26562;-66
2022/07/13 12:56:06;;;;;;;1.65;1.40;;;31.00;35.70;;;;;;651829;219;26538;-69
2022/07/13 12:58:41;;;;;;;1.67;1.15;;;30.80;35.20;;;;;;648624;220;26721;-64
2022/07/13 13:01:09;;;;;;;1.62;1.10;;;30.60;34.50;;;;;;649308;219;26566;-69
2022/07/13 13:03:37;;;;;;;1.30;1.00;;;30.50;34.50;;;;;;651277;220;26560;-63
2022/07/13 13:06:04;;;;;;;0.82;0.82;;;30.60;33.60;;;;;;652667;220;26531;-63
2022/07/13 13:08:31;;;;;;;0.90;0.90;;;30.60;33.60;;;;;;650892;219;26785;-64